메인 페이지
METAR-TAF:

METAR-TAF

공항 :

Mason City Municipal Airport

메이슨 시, 아이오와, 미국

위도: 43-09-28N, 경도: 093-19-53W, 고도: 370m

현재 날씨관측

예보는 1 시간 29분 전, 10:53시(UTC)에 발표되었습니다.
서남서13kt
온도 -1°C
습도 69%
기압 1015 hPa
시정: 16.1km
맑음

METAR: KMCW 281053Z AUTO 24013KT 10SM CLR M01/M06 A2997 RMK AO2 SLP156 T10111056

시각: 07:22 (12:22 UTC)

예보

예보는 53분 전, 11:29시(UTC)에 발표되었습니다.
예보 대상 시간: 28일 12시부터 29일 12시까지 (UTC)
서남서14kt
시정: 10km
고도 25000ft 상공 구름 보통
28일 2300시부터 (UTC)
북서8kt
시정: 10km
고도 25000ft 상공 구름 조금
29일 0600시부터 (UTC)
14kt
시정: 10km
고도 15000ft 상공 구름 많음
29일 0900시부터 (UTC)
13kt
시정: 10km
고도 1500ft 상공 구름 많음

TAF: KMCW 281129Z 2812/2912 25014KT P6SM SCT250 FM282300 31008KT P6SM FEW250 FM290600 35014KT P6SM BKN150 FM290900 35013KT P6SM BKN015

4,000개 이상의 공항 관측 자료 및 예보 (METAR 및 TAF 보고).

지도상에서 검색 가능한 기상관측소가 노란 점과 빨간 점으로 표시되어 있습니다.

기상관측소 명을 보려면 표시 위로 마우스를 이동하세요.

날씨 관측과 예보를 보려면 클릭하세요.

지도 변경 : 확대하려면 엑스 표시가 있는 녹색 버튼, 축소하려면 빼기 표시가 있는 녹색 버튼, 다음 페이지의 지도를 보려면 녹색 화살표를 클릭하세요.


METAR-TAF: